Airfield :
LOGIN :

Register | Disclaimer

   EN    FR    IT 

 










Legend :    VFR   Marginal VFR   IFR   Intensive IFR   Very Intensive IFR
Visi :
Ceiling :
>= 8 km
>= 3000ft
5 to 8 km
1000 to 3000 ft
1500m to 5 km
500 to 1000 ft
800 to 1500m
200 to 500 ft
< 800m
< 200 ft
Symbols :   Thunderstorms  Fog  Heavy snow  Heavy precipitations  Wind > 20 kt
SIGMETs :     Misc.  Thunderstorms  Icing  Turbulence  Mountain Waves  Volcanic Ashes






- Airport Elevation : 228 ft
- IATA code : OPO


LPPR - Porto Fr. Sa Carneiro

CURRENT METAR :
  • 211700Z 24009KT 9999 FEW020 17/11 Q1020

EXPIRED METARs :
  • 211630Z 27006KT 220V310 9999 FEW020 17/12 Q1019
  • 211600Z 26007KT 220V310 9999 SCT020 17/12 Q1019
  • 211530Z 26006KT 180V350 9999 SCT020 17/12 Q1019
  • 211500Z 27007KT 230V320 9999 FEW012 SCT017 17/12 Q1019
  • 211430Z 26004KT 210V320 9999 FEW014 FEW020TCU SCT035 17/13 Q1020
  • 211400Z 28004KT 240V320 9999 -SHRA SCT014 BKN035 16/13 Q1020
  • 211330Z 28005KT 220V320 9999 -SHRA FEW016 BKN040 16/13 Q1020
  • 211300Z 29007KT 250V320 9999 FEW016 17/13 Q1019
  • 211230Z 28006KT 230V330 9999 FEW016 17/13 Q1019

TAF TAF LPPR
Valid from the 21 at 12:00 until the 22 at 12:00 UTC


211100Z 2112/2212 26008KT 9999 SCT018 SCT035
TEMPO 2112/2123 6000 -RA SCT006 BKN012
BECMG 2121/2123 32005KT
BECMG 2123/2201 VRB02KT SCT015
BECMG 2208/2210 30008KT



MET'MAP, your aeronautical weather chart ! - Copyright ORBIFLY December 2007 - Disclaimer

ORBIFLY MET'MAP TEAM :

Programming & Development : Alexandra Zaïnal
Original concept : Baudouin d'Aumeries
Technical & hardware support : Manuel Goepfert
Assistance : Marc-Olivier Méhu




SOURCES & CREDITS :

   NOAA